Time;durP1;ratioP1;P1;durP2;ratioP2;P2;SDS_P1;SDS_P2;PMS_P1;PMS_P2;Temp;Humidity;BMP_temperature;BMP_pressure;BME280_temperature;BME280_humidity;BME280_pressure;Samples;Min_cycle;Max_cycle;Signal;HPM_P1;HPM_P2
2022/08/24 00:02:25;;;;;;;10.52;6.95;;;;;;;19.62;67.05;93659.97;4971338;28;20497;-80
2022/08/24 00:04:52;;;;;;;9.05;6.68;;;;;;;19.66;67.20;93660.75;4972546;28;20073;-82
2022/08/24 00:07:18;;;;;;;8.07;6.47;;;;;;;19.66;67.25;93670.78;4967740;28;20115;-82
2022/08/24 00:09:45;;;;;;;8.70;6.57;;;;;;;19.59;67.19;93660.72;4967944;28;20415;-80
2022/08/24 00:12:12;;;;;;;13.57;6.68;;;;;;;19.43;67.58;93673.66;4970275;28;20152;-79
2022/08/24 00:14:38;;;;;;;8.27;5.93;;;;;;;19.26;68.05;93666.94;4969046;28;20786;-82
2022/08/24 00:17:04;;;;;;;8.45;6.60;;;;;;;19.20;68.57;93681.13;4970293;28;20026;-80
2022/08/24 00:19:30;;;;;;;11.02;7.03;;;;;;;19.26;69.00;93676.97;4970778;28;20494;-80
2022/08/24 00:21:56;;;;;;;9.32;6.97;;;;;;;19.28;68.03;93669.28;4953501;28;20022;-80
2022/08/24 00:24:22;;;;;;;9.85;6.88;;;;;;;19.31;67.75;93665.84;4970874;28;20035;-81
2022/08/24 00:26:48;;;;;;;10.00;6.35;;;;;;;19.39;67.23;93680.94;4970382;28;20093;-79
2022/08/24 00:29:16;;;;;;;11.15;6.75;;;;;;;19.43;67.71;93706.00;4970488;28;20552;-79
2022/08/24 00:31:41;;;;;;;12.15;6.97;;;;;;;19.19;67.52;93655.31;4970897;28;20050;-80
2022/08/24 00:34:07;;;;;;;14.93;8.15;;;;;;;19.54;67.28;93706.91;4970942;28;20073;-79
2022/08/24 00:36:33;;;;;;;13.02;7.03;;;;;;;19.42;66.67;93682.09;4970812;28;20049;-79
2022/08/24 00:38:59;;;;;;;11.70;7.32;;;;;;;19.34;65.99;93670.50;4969616;28;20033;-79
2022/08/24 00:41:25;;;;;;;8.55;6.57;;;;;;;19.38;65.97;93674.00;4968536;28;20038;-81
2022/08/24 00:43:57;;;;;;;8.82;7.18;;;;;;;19.43;65.76;93686.34;4969547;28;20034;-80
2022/08/24 00:46:41;;;;;;;10.40;6.65;;;;;;;19.45;65.51;93703.75;4953847;28;20022;-79
2022/08/24 00:49:34;;;;;;;8.45;6.45;;;;;;;19.47;65.51;93696.06;4969054;28;20095;-80
2022/08/24 00:52:20;;;;;;;9.68;7.47;;;;;;;19.41;65.84;93694.06;4939199;28;20113;-81
2022/08/24 00:54:52;;;;;;;9.35;6.75;;;;;;;19.33;65.49;93690.50;4957557;28;20081;-80
2022/08/24 00:57:20;;;;;;;9.75;6.43;;;;;;;19.17;65.21;93665.69;4959204;28;20104;-80
2022/08/24 00:59:51;;;;;;;9.65;6.45;;;;;;;19.41;65.01;93708.28;4968787;28;20097;-80
2022/08/24 01:02:22;;;;;;;9.23;5.97;;;;;;;19.39;65.22;93705.22;4970578;28;20030;-83
2022/08/24 01:05:00;;;;;;;8.57;5.97;;;;;;;19.40;65.28;93706.75;4970076;28;21215;-81
2022/08/24 01:07:28;;;;;;;7.72;6.22;;;;;;;19.43;65.42;93716.78;4971395;28;20117;-82
2022/08/24 01:09:57;;;;;;;9.75;6.80;;;;;;;19.31;65.57;93692.81;4968276;28;20033;-80
2022/08/24 01:12:25;;;;;;;9.07;6.07;;;;;;;19.33;65.66;93699.38;4969479;28;20993;-79
2022/08/24 01:14:52;;;;;;;10.70;7.22;;;;;;;19.32;65.89;93705.13;4958954;28;20026;-81
2022/08/24 01:20:04;;;;;;;10.67;7.40;;;;;;;19.13;66.21;93672.97;4969178;28;20093;-80
2022/08/24 01:23:02;;;;;;;13.10;8.40;;;;;;;19.56;66.45;93733.50;4969214;28;20611;-80
2022/08/24 01:25:30;;;;;;;13.45;9.35;;;;;;;19.35;66.97;93701.72;4958415;28;20054;-80
2022/08/24 01:27:59;;;;;;;12.30;8.80;;;;;;;19.49;67.14;93720.75;4966935;28;20100;-79
2022/08/24 01:30:26;;;;;;;14.48;9.00;;;;;;;19.50;67.26;93721.53;4970154;28;20469;-79
2022/08/24 01:32:54;;;;;;;12.13;8.23;;;;;;;19.61;67.26;93741.25;4968980;28;20237;-82
2022/08/24 01:35:20;;;;;;;9.93;6.60;;;;;;;19.43;67.22;93710.63;4954252;28;20045;-77
2022/08/24 01:37:46;;;;;;;10.25;6.97;;;;;;;19.62;66.96;93730.09;4966447;28;20031;-78
2022/08/24 01:40:12;;;;;;;9.32;7.00;;;;;;;19.58;66.73;93729.31;4968993;28;20618;-81
2022/08/24 01:42:37;;;;;;;13.05;7.82;;;;;;;19.41;66.64;93705.59;4971395;28;20546;-81
2022/08/24 01:45:03;;;;;;;10.48;7.70;;;;;;;19.30;66.53;93685.88;4973243;28;20030;-83
2022/08/24 01:47:29;;;;;;;12.55;7.90;;;;;;;19.42;65.93;93714.47;4971382;28;20145;-80
2022/08/24 01:49:54;;;;;;;10.32;7.18;;;;;;;19.55;65.78;93740.84;4968966;28;20069;-79
2022/08/24 01:52:24;;;;;;;10.27;7.57;;;;;;;19.48;66.37;93734.59;4972504;28;20034;-81
2022/08/24 01:54:53;;;;;;;12.52;7.15;;;;;;;19.03;66.09;93666.31;4971199;28;20411;-81
2022/08/24 01:57:19;;;;;;;12.88;8.80;;;;;;;19.11;66.00;93680.66;4972638;28;20026;-82
2022/08/24 01:59:44;;;;;;;16.45;10.13;;;;;;;19.29;66.20;93720.13;4970971;28;20033;-80
2022/08/24 02:02:31;;;;;;;16.80;11.50;;;;;;;19.39;66.81;93742.97;4975549;28;20053;-81
2022/08/24 02:04:57;;;;;;;16.65;11.75;;;;;;;19.14;67.69;93710.34;4959254;28;20061;-79
2022/08/24 02:07:23;;;;;;;16.58;9.80;;;;;;;19.17;68.16;93750.03;4972414;28;20118;-80
2022/08/24 02:09:49;;;;;;;20.67;11.88;;;;;;;19.25;68.39;93751.69;4972756;28;20038;-81
2022/08/24 02:12:16;;;;;;;18.08;11.02;;;;;;;19.30;68.30;93751.34;4972851;28;20018;-80
2022/08/24 02:14:41;;;;;;;15.93;9.80;;;;;;;18.99;67.72;93713.25;4971750;28;20027;-80
2022/08/24 02:17:07;;;;;;;19.08;11.25;;;;;;;18.89;67.87;93699.28;4972111;28;20053;-79
2022/08/24 02:19:34;;;;;;;15.20;9.52;;;;;;;19.22;67.63;93757.00;4969841;28;20057;-79
2022/08/24 02:22:00;;;;;;;18.90;11.02;;;;;;;19.28;67.62;93750.94;4969451;28;20031;-79
2022/08/24 02:24:27;;;;;;;15.23;10.68;;;;;;;19.38;67.63;93765.66;4970983;28;20022;-79
2022/08/24 02:26:53;;;;;;;21.25;10.68;;;;;;;19.48;67.35;93775.06;4970080;28;20092;-80
2022/08/24 02:29:19;;;;;;;17.52;11.43;;;;;;;19.51;67.45;93777.78;4970476;28;20033;-79
2022/08/24 02:31:44;;;;;;;16.98;9.32;;;;;;;19.46;67.54;93764.63;4970773;28;20047;-79
2022/08/24 02:34:10;;;;;;;18.50;12.02;;;;;;;19.40;67.30;93759.91;4970633;28;20080;-82
2022/08/24 02:36:37;;;;;;;14.38;10.07;;;;;;;19.42;67.23;93755.69;4970954;28;20109;-80
2022/08/24 02:39:03;;;;;;;13.57;9.00;;;;;;;19.30;66.99;93734.41;4953792;28;20342;-82
2022/08/24 02:41:28;;;;;;;14.35;8.88;;;;;;;19.26;66.48;93733.59;4959709;28;20496;-80
2022/08/24 02:43:54;;;;;;;15.20;8.95;;;;;;;19.45;66.66;93768.50;4972541;28;20030;-79
2022/08/24 02:46:24;;;;;;;12.50;8.07;;;;;;;19.51;66.54;93777.00;4970837;28;20595;-81
2022/08/24 02:48:49;;;;;;;10.05;7.20;;;;;;;19.51;66.99;93783.16;4973947;28;20105;-79
2022/08/24 02:51:24;;;;;;;11.75;8.40;;;;;;;19.56;66.69;93780.13;4971178;28;20121;-80
2022/08/24 02:53:50;;;;;;;11.38;7.93;;;;;;;19.22;66.34;93732.75;4969157;28;20027;-80
2022/08/24 02:56:16;;;;;;;11.85;8.25;;;;;;;19.39;66.64;93750.28;4970952;28;20041;-80
2022/08/24 02:58:43;;;;;;;11.57;7.80;;;;;;;19.55;66.73;93789.41;4972354;28;20027;-81
2022/08/24 03:01:10;;;;;;;15.05;9.23;;;;;;;19.19;66.65;93744.28;4971628;28;20019;-80
2022/08/24 03:03:36;;;;;;;16.63;8.90;;;;;;;19.25;67.04;93759.78;4972672;28;20053;-80
2022/08/24 03:06:02;;;;;;;12.93;9.07;;;;;;;19.19;66.83;93736.97;4971397;28;20490;-81
2022/08/24 03:08:27;;;;;;;14.25;8.18;;;;;;;19.48;66.93;93781.22;4959605;28;20022;-80
2022/08/24 03:10:53;;;;;;;12.90;8.85;;;;;;;19.33;67.07;93776.78;4971634;28;20638;-82
2022/08/24 03:13:18;;;;;;;14.85;7.93;;;;;;;19.32;67.31;93786.00;4970347;28;20100;-79
2022/08/24 03:15:45;;;;;;;14.73;8.68;;;;;;;19.23;66.99;93755.88;4971629;28;20033;-80
2022/08/24 03:18:11;;;;;;;12.05;8.38;;;;;;;19.04;66.97;93724.47;4961061;28;20465;-82
2022/08/24 03:20:37;;;;;;;14.98;8.50;;;;;;;19.32;66.54;93769.84;4960952;28;20026;-81
2022/08/24 03:23:03;;;;;;;13.68;8.15;;;;;;;19.23;66.64;93761.28;4971517;28;20053;-82
2022/08/24 03:25:29;;;;;;;10.95;7.00;;;;;;;19.26;66.22;93771.34;4954279;28;20478;-80
2022/08/24 03:27:54;;;;;;;12.52;6.75;;;;;;;19.05;66.75;93754.91;4971030;28;20037;-81
2022/08/24 03:30:21;;;;;;;10.48;6.45;;;;;;;18.95;66.64;93734.78;4970560;28;20501;-81
2022/08/24 03:32:47;;;;;;;9.80;6.82;;;;;;;19.16;66.94;93766.59;4970245;28;20070;-80
2022/08/24 03:35:14;;;;;;;6.65;5.13;;;;;;;19.35;66.09;93796.09;4972062;28;20026;-79
2022/08/24 03:37:40;;;;;;;7.10;4.60;;;;;;;19.13;66.12;93762.69;4970414;28;20024;-79
2022/08/24 03:40:08;;;;;;;7.35;4.20;;;;;;;19.15;66.15;93775.81;4970641;28;20081;-80
2022/08/24 03:42:34;;;;;;;6.88;4.32;;;;;;;19.22;66.27;93786.66;4969441;28;20026;-79
2022/08/24 03:44:59;;;;;;;6.78;4.60;;;;;;;19.06;66.35;93769.94;4970281;28;20033;-79
2022/08/24 03:47:25;;;;;;;6.03;4.80;;;;;;;19.15;66.50;93781.22;4970514;28;20045;-80
2022/08/24 03:49:50;;;;;;;8.30;5.25;;;;;;;19.16;66.09;93793.56;4971541;28;20030;-81
2022/08/24 03:52:16;;;;;;;6.28;4.07;;;;;;;19.24;66.41;93805.97;4971452;28;20026;-82
2022/08/24 03:54:41;;;;;;;9.45;5.20;;;;;;;19.05;66.69;93789.94;4968812;28;20050;-80
2022/08/24 03:57:06;;;;;;;6.38;4.22;;;;;;;18.76;67.37;93765.34;4970276;28;20022;-80
2022/08/24 03:59:32;;;;;;;6.13;4.50;;;;;;;19.13;67.59;93810.44;4968119;28;20619;-81
2022/08/24 04:01:58;;;;;;;5.30;4.35;;;;;;;18.99;67.33;93783.31;4970030;28;20372;-82
2022/08/24 04:04:24;;;;;;;6.88;4.28;;;;;;;19.16;67.80;93815.91;4970676;28;20549;-83
2022/08/24 04:06:49;;;;;;;5.53;3.95;;;;;;;19.13;67.44;93796.97;4959786;28;20073;-80
2022/08/24 04:09:16;;;;;;;5.45;3.85;;;;;;;19.05;67.30;93776.47;4969431;28;20034;-80
2022/08/24 04:11:44;;;;;;;5.22;3.83;;;;;;;18.96;67.19;93768.66;4959334;28;20041;-81
2022/08/24 04:14:11;;;;;;;5.82;3.17;;;;;;;19.15;66.92;93797.38;4971288;28;20451;-80
2022/08/24 04:16:37;;;;;;;5.25;4.10;;;;;;;18.92;66.97;93756.31;4968977;28;20027;-80
2022/08/24 04:19:03;;;;;;;5.90;3.80;;;;;;;19.23;66.69;93804.41;4970743;28;20351;-80
2022/08/24 04:21:31;;;;;;;5.72;4.20;;;;;;;19.29;66.76;93808.34;4954619;28;20076;-81
2022/08/24 04:23:57;;;;;;;8.05;4.13;;;;;;;19.02;66.77;93777.22;4953279;28;20137;-80
2022/08/24 04:26:25;;;;;;;5.18;3.08;;;;;;;19.23;66.92;93815.19;4969818;28;20050;-81
2022/08/24 04:28:51;;;;;;;4.85;3.13;;;;;;;19.21;66.72;93804.00;4950907;28;20037;-82
2022/08/24 04:31:17;;;;;;;4.75;3.33;;;;;;;19.26;66.85;93811.78;4970058;28;20027;-80
2022/08/24 04:33:44;;;;;;;6.03;4.03;;;;;;;19.15;67.14;93786.59;4969409;28;20054;-82
2022/08/24 04:36:10;;;;;;;6.80;3.88;;;;;;;19.32;67.14;93818.38;4968476;28;20341;-79
2022/08/24 04:38:35;;;;;;;5.82;3.33;;;;;;;19.31;66.82;93816.84;4969879;28;20342;-82
2022/08/24 04:41:11;;;;;;;4.93;3.13;;;;;;;19.04;66.85;93781.09;4968990;28;20117;-80
2022/08/24 04:43:38;;;;;;;5.55;3.20;;;;;;;19.00;67.12;93774.09;4960602;28;20077;-80
2022/08/24 04:46:07;;;;;;;3.70;3.00;;;;;;;19.12;66.92;93806.97;4967968;28;20125;-82
2022/08/24 04:48:33;;;;;;;4.68;2.83;;;;;;;18.60;67.61;93737.78;4969784;28;20581;-82
2022/08/24 04:51:04;;;;;;;4.43;2.85;;;;;;;19.09;68.00;93815.81;4969644;28;20037;-79
2022/08/24 04:53:30;;;;;;;4.25;3.03;;;;;;;19.11;68.54;93793.88;4969192;28;20030;-82
2022/08/24 04:55:56;;;;;;;5.60;3.42;;;;;;;19.12;68.74;93803.50;4968685;28;20442;-81
2022/08/24 04:58:22;;;;;;;5.03;3.65;;;;;;;19.38;67.97;93816.13;4970765;28;20264;-81
2022/08/24 05:00:47;;;;;;;7.60;3.28;;;;;;;19.29;67.58;93811.03;4960189;28;20034;-81
2022/08/24 05:03:13;;;;;;;5.72;2.83;;;;;;;19.28;67.05;93812.16;4968672;28;20088;-81
2022/08/24 05:05:49;;;;;;;5.07;3.47;;;;;;;19.02;67.31;93782.59;4952692;28;20026;-80
2022/08/24 05:08:16;;;;;;;6.07;3.72;;;;;;;19.21;67.64;93812.09;4958599;28;20414;-80
2022/08/24 05:10:43;;;;;;;5.43;3.47;;;;;;;19.36;67.92;93813.78;4970665;28;20033;-81
2022/08/24 05:13:10;;;;;;;5.47;2.58;;;;;;;19.32;66.33;93812.97;4967390;28;20037;-80
2022/08/24 05:15:41;;;;;;;5.15;2.70;;;;;;;19.50;65.68;93807.84;4957349;28;20034;-81
2022/08/24 05:18:06;;;;;;;5.53;3.00;;;;;;;19.52;65.92;93811.69;4970714;28;20391;-80
2022/08/24 05:20:34;;;;;;;5.03;2.90;;;;;;;19.60;66.70;93799.81;4968068;28;20065;-81
2022/08/24 05:23:00;;;;;;;4.38;2.50;;;;;;;19.62;66.46;93805.66;4969819;28;20539;-80
2022/08/24 05:25:26;;;;;;;5.15;3.50;;;;;;;19.50;67.35;93795.13;4968911;28;20034;-80
2022/08/24 05:27:52;;;;;;;6.20;3.10;;;;;;;19.62;67.88;93804.88;4969230;28;20026;-80
2022/08/24 05:30:18;;;;;;;3.85;2.90;;;;;;;19.64;65.73;93811.47;4967587;28;20037;-81
2022/08/24 05:32:43;;;;;;;5.80;3.25;;;;;;;19.39;65.08;93759.13;4969922;28;20053;-80
2022/08/24 05:35:08;;;;;;;5.53;3.58;;;;;;;19.64;64.69;93770.22;4966992;28;20069;-80
2022/08/24 05:37:38;;;;;;;4.38;3.05;;;;;;;19.96;64.54;93800.19;4966736;28;20027;-80
2022/08/24 05:40:06;;;;;;;3.40;2.78;;;;;;;20.03;65.45;93805.66;4969078;28;20029;-80
2022/08/24 05:42:32;;;;;;;3.25;2.67;;;;;;;19.63;65.34;93734.38;4968793;28;20057;-81
2022/08/24 05:44:57;;;;;;;4.88;3.00;;;;;;;20.00;62.69;93784.78;4970095;28;20105;-80
2022/08/24 05:47:24;;;;;;;5.15;2.92;;;;;;;20.13;63.11;93786.84;4968991;28;20137;-80
2022/08/24 05:49:52;;;;;;;5.82;3.58;;;;;;;20.03;62.91;93765.94;4968151;28;20030;-80
2022/08/24 05:52:21;;;;;;;5.45;3.92;;;;;;;19.89;62.57;93765.81;4969968;28;20395;-81
2022/08/24 05:54:52;;;;;;;4.78;3.55;;;;;;;19.52;63.69;93763.16;4968544;28;20022;-82
2022/08/24 05:57:17;;;;;;;6.13;3.58;;;;;;;19.65;64.73;93772.53;4968433;28;20035;-80
2022/08/24 05:59:43;;;;;;;4.35;3.22;;;;;;;19.71;64.75;93765.66;4959949;28;20015;-81
2022/08/24 06:02:08;;;;;;;5.80;3.17;;;;;;;19.62;64.14;93762.47;4969608;28;20118;-80
2022/08/24 06:04:36;;;;;;;9.40;3.50;;;;;;;19.89;61.97;93786.63;4953476;28;20058;-80
2022/08/24 06:07:03;;;;;;;4.57;3.33;;;;;;;20.03;62.55;93792.16;4969972;28;20065;-82
2022/08/24 06:09:28;;;;;;;4.38;3.28;;;;;;;19.88;62.48;93780.47;4968687;28;20116;-80
2022/08/24 06:11:54;;;;;;;4.93;3.22;;;;;;;19.28;62.98;93750.94;4966550;28;20435;-81
2022/08/24 06:14:19;;;;;;;5.93;3.80;;;;;;;18.77;64.22;93694.13;4969623;28;20491;-79
2022/08/24 06:16:47;;;;;;;6.43;3.40;;;;;;;19.75;63.07;93798.81;4968549;28;20084;-80
2022/08/24 06:19:16;;;;;;;13.15;4.32;;;;;;;19.89;63.36;93798.22;4968960;28;20517;-81
2022/08/24 06:21:43;;;;;;;7.78;3.60;;;;;;;19.79;63.29;93798.09;4967757;28;20033;-79
2022/08/24 06:24:08;;;;;;;6.88;3.90;;;;;;;19.88;63.36;93785.84;4968882;28;20053;-81
2022/08/24 06:29:20;;;;;;;4.72;3.47;;;;;;;20.19;61.67;93806.19;4972714;28;20041;-81
2022/08/24 06:31:47;;;;;;;4.70;3.70;;;;;;;20.15;62.58;93778.34;4971521;28;20511;-80
2022/08/24 06:34:15;;;;;;;6.25;3.80;;;;;;;20.39;62.45;93806.72;4954799;28;20066;-80
2022/08/24 06:36:41;;;;;;;6.65;4.25;;;;;;;20.00;60.99;93760.50;4973275;28;20482;-80
2022/08/24 06:39:07;;;;;;;9.38;4.53;;;;;;;20.04;62.21;93799.84;4970822;28;20037;-81
2022/08/24 06:41:34;;;;;;;5.95;3.58;;;;;;;19.88;62.28;93790.47;4953712;28;20023;-81
2022/08/24 06:44:00;;;;;;;6.05;4.95;;;;;;;20.08;62.46;93805.31;4973461;28;20034;-81
2022/08/24 06:46:25;;;;;;;5.63;4.07;;;;;;;20.22;62.17;93791.94;4971449;28;20068;-81
2022/08/24 06:48:52;;;;;;;7.00;4.40;;;;;;;20.42;63.43;93797.88;4972445;28;20026;-81
2022/08/24 06:51:21;;;;;;;6.43;4.15;;;;;;;20.46;62.38;93804.88;4955155;28;20035;-80
2022/08/24 06:53:47;;;;;;;4.22;3.40;;;;;;;20.64;62.01;93806.91;4972674;28;20034;-81
2022/08/24 06:56:13;;;;;;;5.53;3.65;;;;;;;20.46;60.80;93760.88;4970609;28;20036;-80
2022/08/24 06:58:39;;;;;;;9.05;3.92;;;;;;;20.68;62.03;93778.00;4971886;28;20034;-80
2022/08/24 07:01:19;;;;;;;6.55;4.15;;;;;;;20.83;61.42;93815.50;4952363;28;20119;-80
2022/08/24 07:03:45;;;;;;;7.50;3.85;;;;;;;20.91;60.92;93816.38;4972490;28;20137;-81
2022/08/24 07:06:12;;;;;;;5.38;3.70;;;;;;;21.04;59.65;93820.28;4972215;28;20053;-81
2022/08/24 07:08:40;;;;;;;6.85;4.50;;;;;;;20.84;59.13;93808.97;4971529;28;20034;-81
2022/08/24 07:11:06;;;;;;;6.38;4.57;;;;;;;20.86;58.98;93805.88;4970468;28;20027;-79
2022/08/24 07:13:32;;;;;;;6.15;4.50;;;;;;;20.79;61.23;93812.00;4971128;28;20137;-81
2022/08/24 07:15:58;;;;;;;5.13;3.70;;;;;;;20.63;61.08;93791.84;4973609;28;20019;-82
2022/08/24 07:18:23;;;;;;;6.93;4.72;;;;;;;20.53;61.37;93815.69;4960497;28;20022;-80
2022/08/24 07:20:50;;;;;;;8.15;4.45;;;;;;;20.80;60.94;93812.78;4971342;28;20085;-80
2022/08/24 07:23:16;;;;;;;5.65;4.00;;;;;;;20.86;58.48;93805.88;4953419;28;20042;-82
2022/08/24 07:25:43;;;;;;;6.97;3.97;;;;;;;20.94;58.51;93826.41;4956320;28;20076;-80
2022/08/24 07:28:10;;;;;;;6.13;4.00;;;;;;;21.14;58.77;93846.63;4970274;28;20030;-80
2022/08/24 07:30:36;;;;;;;6.50;3.90;;;;;;;20.87;59.52;93792.03;4959986;28;20029;-80
2022/08/24 07:33:02;;;;;;;4.82;3.67;;;;;;;21.31;58.58;93848.63;4971204;28;20051;-80
2022/08/24 07:35:31;;;;;;;8.57;5.20;;;;;;;20.88;56.82;93826.00;4971373;28;20018;-80
2022/08/24 07:37:57;;;;;;;6.40;5.07;;;;;;;20.35;59.60;93836.41;4961421;28;20066;-80
2022/08/24 07:40:23;;;;;;;7.70;5.03;;;;;;;20.32;61.45;93820.97;4971913;28;20818;-80
2022/08/24 07:42:49;;;;;;;5.88;4.53;;;;;;;20.68;61.97;93832.78;4960618;28;20026;-80
2022/08/24 07:45:15;;;;;;;6.15;4.80;;;;;;;20.62;61.78;93798.41;4969357;28;20030;-80
2022/08/24 07:47:41;;;;;;;8.30;4.95;;;;;;;20.70;62.55;93792.66;4960228;28;20037;-79
2022/08/24 07:50:07;;;;;;;6.32;4.38;;;;;;;20.80;61.54;93812.78;4970009;28;20875;-79
2022/08/24 07:52:32;;;;;;;6.22;4.10;;;;;;;20.77;62.00;93822.44;4969584;28;20113;-81
2022/08/24 07:54:57;;;;;;;7.60;4.68;;;;;;;20.75;61.37;93800.41;4971273;28;20085;-83
2022/08/24 07:57:23;;;;;;;6.38;3.95;;;;;;;21.06;60.00;93826.09;4971020;28;20034;-79
2022/08/24 07:59:49;;;;;;;6.80;3.85;;;;;;;21.15;58.00;93823.84;4969175;28;20558;-80
2022/08/24 08:02:15;;;;;;;6.70;4.63;;;;;;;21.00;59.20;93819.50;4969538;28;20085;-82
2022/08/24 08:04:42;;;;;;;6.88;3.50;;;;;;;21.21;57.29;93818.84;4970058;28;20050;-78
2022/08/24 08:07:08;;;;;;;4.55;3.60;;;;;;;21.06;57.04;93780.16;4969441;28;20026;-80
2022/08/24 08:09:38;;;;;;;6.53;3.85;;;;;;;21.21;57.69;93797.97;4969936;28;20045;-79
2022/08/24 08:12:03;;;;;;;5.43;3.55;;;;;;;21.07;59.59;93795.19;4969444;28;20717;-81
2022/08/24 08:14:29;;;;;;;5.25;3.38;;;;;;;21.03;59.08;93760.03;4970719;28;20037;-80
2022/08/24 08:16:55;;;;;;;5.85;3.70;;;;;;;21.51;57.18;93797.66;4969980;28;20512;-80
2022/08/24 08:19:20;;;;;;;4.32;2.95;;;;;;;21.69;55.81;93814.78;4970042;28;20550;-79
2022/08/24 08:24:42;;;;;;;5.25;3.03;;;;;;;21.82;55.50;93812.47;4970275;28;20032;-79
2022/08/24 08:27:09;;;;;;;5.30;4.22;;;;;;;21.94;55.84;93816.75;4968942;28;20034;-80
2022/08/24 08:29:35;;;;;;;3.83;2.58;;;;;;;21.95;55.06;93794.69;4951652;28;20517;-82
2022/08/24 08:32:01;;;;;;;6.05;3.47;;;;;;;22.01;53.35;93797.81;4969147;28;20515;-81
2022/08/24 08:34:30;;;;;;;4.90;3.55;;;;;;;22.13;53.90;93811.75;4969895;28;20045;-79
2022/08/24 08:36:55;;;;;;;5.25;3.65;;;;;;;22.13;55.51;93806.34;4969080;28;20049;-80
2022/08/24 08:39:22;;;;;;;7.38;3.63;;;;;;;22.09;55.08;93800.16;4968551;28;20474;-80
2022/08/24 08:41:55;;;;;;;7.70;4.70;;;;;;;21.87;54.38;93795.84;4971211;28;20033;-79
2022/08/24 08:44:36;;;;;;;5.90;3.83;;;;;;;21.92;55.43;93800.13;4968975;28;20058;-81
2022/08/24 08:47:19;;;;;;;9.00;4.20;;;;;;;22.05;54.30;93802.06;4969388;28;20430;-81
2022/08/24 08:50:12;;;;;;;4.93;3.40;;;;;;;22.14;54.08;93799.00;4970702;28;20158;-79
2022/08/24 08:52:56;;;;;;;5.38;3.40;;;;;;;22.19;55.07;93799.34;4953390;28;20061;-79
2022/08/24 08:55:36;;;;;;;5.05;3.33;;;;;;;22.27;53.53;93803.66;4969124;28;20523;-80
2022/08/24 08:58:26;;;;;;;4.30;2.92;;;;;;;22.19;56.02;93802.06;4968453;28;20030;-79
2022/08/24 09:01:00;;;;;;;6.63;3.03;;;;;;;22.29;55.38;93806.00;4969680;28;20990;-81
2022/08/24 09:03:40;;;;;;;7.53;3.83;;;;;;;22.05;55.76;93772.28;4969610;28;20061;-80
2022/08/24 09:06:19;;;;;;;7.05;3.40;;;;;;;22.34;53.33;93792.03;4967863;28;20038;-79
2022/08/24 09:09:21;;;;;;;4.18;3.17;;;;;;;22.49;54.67;93817.97;4969379;28;20026;-80
2022/08/24 09:12:07;;;;;;;6.72;3.65;;;;;;;22.56;54.72;93798.22;4968495;28;20028;-81
2022/08/24 09:15:05;;;;;;;6.75;3.92;;;;;;;22.67;53.16;93810.59;4969171;28;20045;-80
2022/08/24 09:17:43;;;;;;;4.22;3.40;;;;;;;22.58;53.15;93776.94;4953491;28;20046;-80
2022/08/24 09:20:38;;;;;;;5.82;3.67;;;;;;;22.79;53.33;93808.63;4950031;28;21484;-83
2022/08/24 09:23:49;;;;;;;4.03;3.20;;;;;;;22.74;50.81;93793.53;4962539;28;20784;-83
2022/08/24 09:26:20;;;;;;;5.90;3.08;;;;;;;22.84;51.09;93811.72;4916798;29;20027;-80
2022/08/24 09:28:52;;;;;;;4.63;3.38;;;;;;;22.50;52.42;93807.91;4960738;28;20035;-77
2022/08/24 09:31:40;;;;;;;5.38;3.50;;;;;;;22.71;53.19;93797.81;4969019;28;20587;-81
2022/08/24 09:34:07;;;;;;;4.32;3.13;;;;;;;22.72;53.36;93768.78;4967848;28;20500;-82
2022/08/24 09:36:38;;;;;;;4.32;3.10;;;;;;;22.93;50.06;93785.00;4969747;28;20477;-82
2022/08/24 09:39:17;;;;;;;5.25;2.92;;;;;;;22.91;49.40;93779.22;4968488;28;20033;-82
2022/08/24 09:42:09;;;;;;;4.65;3.42;;;;;;;22.85;50.50;93780.75;4969105;28;20041;-80
2022/08/24 09:45:22;;;;;;;6.18;3.60;;;;;;;22.88;50.64;93774.56;4963132;28;20144;-81
2022/08/24 09:48:09;;;;;;;4.65;3.35;;;;;;;22.85;50.29;93769.91;4966530;28;20117;-80
2022/08/24 09:51:13;;;;;;;4.22;3.10;;;;;;;22.96;50.57;93770.66;4968333;28;20494;-80
2022/08/24 09:54:22;;;;;;;5.15;3.25;;;;;;;23.00;49.92;93768.72;4969873;28;20042;-80
2022/08/24 09:57:00;;;;;;;4.93;3.60;;;;;;;23.05;48.63;93767.53;4959240;28;20085;-80
2022/08/24 09:59:47;;;;;;;4.38;3.10;;;;;;;23.11;49.15;93765.97;4967385;28;20030;-78
2022/08/24 10:02:41;;;;;;;3.92;3.03;;;;;;;23.17;50.14;93752.78;4969580;28;20073;-80
2022/08/24 10:05:44;;;;;;;5.03;2.88;;;;;;;23.25;49.43;93749.63;4956167;28;20023;-78
2022/08/24 10:08:19;;;;;;;3.58;3.00;;;;;;;23.14;46.90;93727.97;4971278;28;20018;-81
2022/08/24 10:11:04;;;;;;;6.47;3.42;;;;;;;22.87;49.04;93718.78;4973788;28;20031;-79
2022/08/24 10:13:44;;;;;;;5.60;3.67;;;;;;;23.12;49.07;93743.84;4961346;28;20023;-78
2022/08/24 10:16:26;;;;;;;4.05;3.20;;;;;;;23.00;49.21;93714.47;4972313;28;20495;-78
2022/08/24 10:19:10;;;;;;;6.10;3.22;;;;;;;23.22;49.47;93730.66;4956961;28;20355;-79
2022/08/24 10:21:45;;;;;;;3.65;3.15;;;;;;;23.29;47.46;93725.19;4969397;28;20379;-79
2022/08/24 10:24:12;;;;;;;3.72;2.85;;;;;;;23.22;46.91;93728.69;4955849;28;20059;-80
2022/08/24 10:26:56;;;;;;;3.97;2.60;;;;;;;23.35;48.14;93726.31;4955697;28;20038;-78
2022/08/24 10:29:51;;;;;;;3.80;3.03;;;;;;;23.39;47.09;93732.50;4956741;28;20034;-80
2022/08/24 10:32:20;;;;;;;7.20;4.25;;;;;;;23.38;46.94;93733.66;4969743;28;20057;-78
2022/08/24 10:34:59;;;;;;;4.70;2.90;;;;;;;23.17;47.48;93719.03;4955979;28;20030;-78
2022/08/24 10:37:31;;;;;;;6.43;3.25;;;;;;;23.39;46.92;93738.72;4971071;28;20541;-78
2022/08/24 10:40:20;;;;;;;6.43;3.97;;;;;;;23.41;48.40;93735.59;4971869;28;20495;-79
2022/08/24 10:43:34;;;;;;;5.82;3.25;;;;;;;23.46;47.36;93738.69;4954467;28;20027;-80
2022/08/24 10:46:06;;;;;;;4.13;3.10;;;;;;;23.32;48.17;93727.13;4919369;29;20075;-79
2022/08/24 10:49:00;;;;;;;3.35;2.90;;;;;;;23.43;46.46;93725.09;4967606;28;21100;-78
2022/08/24 10:52:07;;;;;;;5.47;2.90;;;;;;;22.98;47.09;93659.84;4971031;28;20069;-80
2022/08/24 10:54:35;;;;;;;4.72;3.67;;;;;;;23.40;47.96;93704.19;4954860;28;20046;-79
2022/08/24 10:57:19;;;;;;;4.05;2.80;;;;;;;23.62;47.51;93735.50;4971903;28;20044;-78
2022/08/24 11:00:00;;;;;;;7.45;3.80;;;;;;;23.73;47.88;93735.44;4970763;28;20026;-77
2022/08/24 11:02:28;;;;;;;3.33;3.03;;;;;;;23.74;46.45;93726.88;4969909;28;20067;-78
2022/08/24 11:05:04;;;;;;;5.43;3.70;;;;;;;23.78;47.27;93721.44;4969823;28;20056;-79
2022/08/24 11:07:30;;;;;;;8.00;3.67;;;;;;;23.55;47.22;93694.84;4972296;28;20034;-80
2022/08/24 11:10:05;;;;;;;5.03;3.22;;;;;;;23.64;47.96;93699.81;4970999;28;20022;-79
2022/08/24 11:12:48;;;;;;;;;;;;;;;23.91;47.52;93736.06;4972304;28;20034;-79
2022/08/24 11:15:17;;;;;;;6.03;2.88;;;;;;;23.91;47.76;93731.41;4966694;28;20286;-78
2022/08/24 11:18:00;;;;;;;4.68;3.67;;;;;;;23.97;47.69;93723.63;4954892;28;20022;-78
2022/08/24 11:20:43;;;;;;;4.93;3.42;;;;;;;23.93;46.35;93720.94;4970861;28;20037;-79
2022/08/24 11:23:19;;;;;;;6.63;4.15;;;;;;;23.92;46.42;93694.94;4972678;28;20593;-78
2022/08/24 11:26:05;;;;;;;5.40;4.38;;;;;;;23.93;46.91;93701.91;4955380;28;20034;-79
2022/08/24 11:28:30;;;;;;;5.38;3.40;;;;;;;24.07;47.98;93714.59;4971351;28;20035;-78
2022/08/24 11:30:57;;;;;;;4.93;3.78;;;;;;;24.05;48.24;93718.91;4971425;28;20048;-79
2022/08/24 11:33:30;;;;;;;5.88;3.05;;;;;;;23.94;47.34;93686.41;4954048;28;20741;-78
2022/08/24 11:35:56;;;;;;;9.80;3.80;;;;;;;24.02;46.73;93690.59;4969684;28;20046;-79
2022/08/24 11:38:26;;;;;;;5.32;3.70;;;;;;;24.22;47.46;93712.56;4971498;28;20030;-79
2022/08/24 11:41:15;;;;;;;6.63;3.40;;;;;;;24.23;46.64;93705.97;4971262;28;20026;-79
2022/08/24 11:44:22;;;;;;;5.63;3.42;;;;;;;24.28;46.56;93700.09;4971464;28;20129;-78
2022/08/24 11:47:01;;;;;;;6.25;3.45;;;;;;;24.01;46.45;93670.81;4956009;28;20611;-79
2022/08/24 11:49:56;;;;;;;4.85;3.08;;;;;;;24.14;47.93;93702.94;4970149;28;20387;-78
2022/08/24 11:52:36;;;;;;;5.38;3.70;;;;;;;24.08;47.89;93685.50;4971197;28;20560;-81
2022/08/24 11:55:32;;;;;;;7.03;4.22;;;;;;;23.98;48.56;93651.81;4971792;28;20498;-79
2022/08/24 11:58:05;;;;;;;5.18;3.80;;;;;;;24.40;47.48;93703.06;4951154;28;20371;-79
2022/08/24 12:00:56;;;;;;;6.35;3.47;;;;;;;24.47;47.09;93696.03;4970981;28;20105;-78